Time;durP1;ratioP1;P1;durP2;ratioP2;P2;SDS_P1;SDS_P2;PMS_P1;PMS_P2;Temp;Humidity;BMP_temperature;BMP_pressure;BME280_temperature;BME280_humidity;BME280_pressure;Samples;Min_cycle;Max_cycle;Signal;HPM_P1;HPM_P2
2023/09/12 00:01:32;;;;;;;18.05;16.00;;;19.70;99.90;;;;;;4845206;29;20040;-90
2023/09/12 00:04:01;;;;;;;18.63;16.05;;;19.70;99.90;;;;;;4846066;29;20560;-92
2023/09/12 00:06:26;;;;;;;18.55;16.63;;;19.70;99.90;;;;;;4863125;29;20127;-93
2023/09/12 00:08:52;;;;;;;18.00;15.55;;;19.80;99.90;;;;;;4848750;29;20500;-92
2023/09/12 00:11:18;;;;;;;18.83;14.43;;;19.80;99.90;;;;;;4834507;29;20563;-93
2023/09/12 00:13:44;;;;;;;17.67;15.60;;;19.80;99.90;;;;;;4862810;29;20041;-92
2023/09/12 00:16:10;;;;;;;19.55;16.13;;;19.80;99.90;;;;;;4858481;29;20041;-90
2023/09/12 00:18:37;;;;;;;17.23;14.97;;;19.80;99.90;;;;;;4868537;29;20055;-90
2023/09/12 00:21:03;;;;;;;17.00;15.23;;;19.80;99.90;;;;;;4835089;29;20040;-91
2023/09/12 00:23:29;;;;;;;18.48;16.48;;;19.80;99.90;;;;;;4850741;29;20196;-90
2023/09/12 00:25:55;;;;;;;18.90;16.38;;;19.80;99.90;;;;;;4882771;29;20081;-91
2023/09/12 00:28:21;;;;;;;18.00;15.88;;;19.80;99.90;;;;;;4833978;29;20037;-91
2023/09/12 00:30:47;;;;;;;16.40;14.80;;;19.80;99.90;;;;;;4850669;29;20044;-91
2023/09/12 00:33:13;;;;;;;18.27;15.95;;;19.80;99.90;;;;;;4863712;29;20075;-92
2023/09/12 00:35:39;;;;;;;17.90;16.10;;;19.80;99.90;;;;;;4849426;29;20045;-92
2023/09/12 00:38:06;;;;;;;19.42;16.92;;;19.80;99.90;;;;;;4863650;29;20156;-91
2023/09/12 00:40:32;;;;;;;20.20;18.10;;;19.80;99.90;;;;;;4834400;29;20044;-91
2023/09/12 00:42:59;;;;;;;18.70;16.80;;;19.80;99.90;;;;;;4849406;29;20060;-92
2023/09/12 00:45:25;;;;;;;19.13;16.73;;;19.80;99.90;;;;;;4848607;29;20041;-92
2023/09/12 00:47:52;;;;;;;20.77;17.42;;;19.80;99.90;;;;;;4844867;29;20082;-92
2023/09/12 00:50:20;;;;;;;20.45;18.00;;;19.80;99.90;;;;;;4844109;29;20049;-92
2023/09/12 00:52:47;;;;;;;17.95;16.05;;;19.80;99.90;;;;;;4861608;29;20044;-91
2023/09/12 00:55:13;;;;;;;20.23;18.20;;;19.70;99.90;;;;;;4847969;29;20189;-91
2023/09/12 00:57:40;;;;;;;18.92;16.55;;;19.70;99.90;;;;;;4869128;29;20044;-91
2023/09/12 01:00:12;;;;;;;;;;;19.70;99.90;;;;;;4859302;29;20049;-91
2023/09/12 01:02:47;;;;;;;21.23;18.88;;;19.70;99.90;;;;;;4863466;29;19927;-91
2023/09/12 01:05:14;;;;;;;21.67;19.35;;;19.70;99.90;;;;;;4876630;29;20541;-91
2023/09/12 01:07:42;;;;;;;22.13;18.48;;;19.60;99.90;;;;;;4878372;29;20201;-92
2023/09/12 01:10:08;;;;;;;21.45;19.25;;;19.60;99.90;;;;;;4861247;29;20140;-91
2023/09/12 01:12:35;;;;;;;20.50;18.38;;;19.60;99.90;;;;;;4845810;29;20045;-92
2023/09/12 01:15:01;;;;;;;22.08;18.58;;;19.60;99.90;;;;;;4860875;29;20124;-91
2023/09/12 01:17:27;;;;;;;22.10;19.40;;;19.60;99.90;;;;;;4846928;29;20135;-92
2023/09/12 01:19:53;;;;;;;21.38;19.10;;;19.60;99.90;;;;;;4843848;29;20045;-91
2023/09/12 01:22:55;;;;;;;21.50;18.92;;;19.60;99.90;;;;;;4857123;29;20055;-91
2023/09/12 01:25:20;;;;;;;19.58;17.55;;;19.60;99.90;;;;;;4862746;29;20045;-90
2023/09/12 01:27:50;;;;;;;21.48;18.13;;;19.50;99.90;;;;;;4861359;29;20461;-91
2023/09/12 01:30:20;;;;;;;21.13;18.45;;;19.50;99.90;;;;;;4878054;29;20045;-92
2023/09/12 01:32:46;;;;;;;19.10;17.20;;;19.50;99.90;;;;;;4862207;29;20056;-91
2023/09/12 01:35:13;;;;;;;20.13;17.80;;;19.50;99.90;;;;;;4862931;29;20056;-91
2023/09/12 01:37:39;;;;;;;20.33;18.00;;;19.50;99.90;;;;;;4860202;29;20051;-91
2023/09/12 01:40:06;;;;;;;19.55;16.67;;;19.50;99.90;;;;;;4882070;29;20053;-92
2023/09/12 01:42:44;;;;;;;19.33;16.92;;;19.50;99.90;;;;;;4861466;29;20417;-91
2023/09/12 01:45:13;;;;;;;21.95;18.10;;;19.50;99.90;;;;;;4859891;29;20328;-91
2023/09/12 01:47:39;;;;;;;18.67;16.42;;;19.50;99.90;;;;;;4860397;29;20048;-92
2023/09/12 01:50:07;;;;;;;20.67;16.95;;;19.40;99.90;;;;;;4832873;29;20044;-92
2023/09/12 01:52:32;;;;;;;20.10;17.20;;;19.40;99.90;;;;;;4847058;29;20056;-91
2023/09/12 01:54:59;;;;;;;19.65;17.65;;;19.40;99.90;;;;;;4846310;29;20048;-91
2023/09/12 01:57:25;;;;;;;19.77;17.73;;;19.40;99.90;;;;;;4835235;29;20513;-90
2023/09/12 01:59:51;;;;;;;23.67;17.45;;;19.40;99.90;;;;;;4850217;29;20068;-90
2023/09/12 02:02:17;;;;;;;19.58;16.70;;;19.40;99.90;;;;;;4868957;29;20052;-92
2023/09/12 02:05:31;;;;;;;18.25;16.35;;;19.30;99.90;;;;;;4847721;29;20464;-91
2023/09/12 02:07:59;;;;;;;21.80;17.35;;;19.40;99.90;;;;;;4851682;29;20048;-91
2023/09/12 02:10:24;;;;;;;21.65;18.08;;;19.30;99.90;;;;;;4840302;29;20481;-91
2023/09/12 02:12:50;;;;;;;19.75;17.65;;;19.30;99.90;;;;;;4873098;29;20048;-91
2023/09/12 02:15:16;;;;;;;21.33;17.85;;;19.30;99.90;;;;;;4845789;29;20044;-91
2023/09/12 02:17:41;;;;;;;20.17;18.08;;;19.30;99.90;;;;;;4847560;29;20056;-92
2023/09/12 02:20:09;;;;;;;20.33;17.95;;;19.30;99.90;;;;;;4832292;29;20079;-91
2023/09/12 02:22:35;;;;;;;21.05;18.58;;;19.30;99.90;;;;;;4860793;29;20044;-90
2023/09/12 02:25:02;;;;;;;23.58;20.38;;;19.20;99.90;;;;;;4840829;29;20049;-89
2023/09/12 02:27:27;;;;;;;23.27;19.13;;;19.20;99.90;;;;;;4847651;29;20567;-90
2023/09/12 02:29:53;;;;;;;25.50;21.13;;;19.10;99.90;;;;;;4831973;29;20136;-90
2023/09/12 02:32:19;;;;;;;24.42;20.90;;;19.10;99.90;;;;;;4834540;29;20076;-90
2023/09/12 02:34:45;;;;;;;23.77;21.17;;;19.10;99.90;;;;;;4847184;29;20048;-89
2023/09/12 02:37:11;;;;;;;25.55;21.52;;;;;;;;;;4824324;29;20048;-91
2023/09/12 02:39:40;;;;;;;21.70;19.35;;;;;;;;;;4859819;29;20045;-90
2023/09/12 02:42:06;;;;;;;29.33;21.80;;;;;;;;;;4853426;29;20477;-90
2023/09/12 02:44:32;;;;;;;22.88;19.83;;;;;;;;;;4849688;29;20047;-90
2023/09/12 02:46:58;;;;;;;23.15;20.65;;;;;;;;;;4846370;29;20049;-90
2023/09/12 02:49:24;;;;;;;26.42;21.23;;;18.90;99.90;;;;;;4873181;29;20043;-90
2023/09/12 02:51:50;;;;;;;25.77;21.15;;;18.90;99.90;;;;;;4845227;29;20045;-92
2023/09/12 02:54:15;;;;;;;24.27;21.73;;;18.80;99.90;;;;;;4831390;29;20049;-90
2023/09/12 02:56:41;;;;;;;23.33;20.42;;;18.80;99.90;;;;;;4848520;29;20053;-89
2023/09/12 02:59:07;;;;;;;23.77;20.45;;;18.90;99.90;;;;;;4830467;29;20539;-89
2023/09/12 03:01:33;;;;;;;26.02;21.85;;;18.80;99.90;;;;;;4826056;29;20460;-88
2023/09/12 03:03:58;;;;;;;25.25;21.50;;;18.80;99.90;;;;;;4829111;29;20045;-90
2023/09/12 03:06:24;;;;;;;24.27;20.48;;;18.80;99.90;;;;;;4832740;29;20041;-91
2023/09/12 03:08:50;;;;;;;27.70;21.45;;;18.90;99.90;;;;;;4844214;29;20061;-90
2023/09/12 03:11:15;;;;;;;26.10;21.48;;;18.90;99.90;;;;;;4847133;29;20040;-90
2023/09/12 03:13:42;;;;;;;26.25;21.80;;;18.90;99.90;;;;;;4832533;29;20514;-90
2023/09/12 03:16:14;;;;;;;23.20;19.80;;;18.90;99.90;;;;;;4863004;29;20072;-90
2023/09/12 03:18:41;;;;;;;26.98;22.88;;;18.90;99.90;;;;;;4859848;29;20048;-90
2023/09/12 03:21:06;;;;;;;28.75;21.55;;;18.90;99.90;;;;;;4851616;29;20394;-89
2023/09/12 03:23:32;;;;;;;23.85;19.73;;;18.90;99.90;;;;;;4854270;29;20051;-90
2023/09/12 03:26:06;;;;;;;24.30;21.58;;;18.90;99.90;;;;;;4855979;29;20055;-91
2023/09/12 03:28:32;;;;;;;23.95;21.20;;;18.90;99.90;;;;;;4846969;29;20048;-89
2023/09/12 03:31:13;;;;;;;23.65;20.00;;;18.90;99.90;;;;;;4843830;29;20048;-90
2023/09/12 03:33:40;;;;;;;23.77;20.40;;;18.90;99.90;;;;;;4855502;29;20316;-90
2023/09/12 03:36:06;;;;;;;21.58;19.27;;;18.90;99.90;;;;;;4861967;29;20477;-91
2023/09/12 03:38:33;;;;;;;24.70;20.20;;;18.90;99.90;;;;;;4845012;29;20501;-90
2023/09/12 03:40:59;;;;;;;25.95;20.92;;;18.90;99.90;;;;;;4860897;29;20098;-90
2023/09/12 03:43:25;;;;;;;22.67;19.27;;;18.90;99.90;;;;;;4860338;29;20450;-91
2023/09/12 03:45:51;;;;;;;23.40;20.20;;;18.90;99.90;;;;;;4846401;29;20489;-90
2023/09/12 03:48:16;;;;;;;25.45;20.58;;;18.90;99.90;;;;;;4832469;29;20127;-89
2023/09/12 03:50:42;;;;;;;26.40;21.23;;;18.80;99.90;;;;;;4860809;29;20104;-90
2023/09/12 03:53:09;;;;;;;24.50;20.10;;;18.90;99.90;;;;;;4860771;29;20419;-91
2023/09/12 03:55:34;;;;;;;22.45;19.30;;;18.90;99.90;;;;;;4866796;29;20112;-90
2023/09/12 03:58:00;;;;;;;23.55;19.65;;;18.90;99.90;;;;;;4865295;29;20130;-90
2023/09/12 04:00:26;;;;;;;24.08;19.70;;;18.90;99.90;;;;;;4850555;29;20045;-90
2023/09/12 04:02:52;;;;;;;25.15;19.77;;;18.90;99.90;;;;;;4874854;29;20056;-91
2023/09/12 04:05:17;;;;;;;24.27;18.95;;;18.90;99.90;;;;;;4854769;29;20079;-90
2023/09/12 04:07:43;;;;;;;24.50;19.02;;;18.90;99.90;;;;;;4871159;29;20041;-90
2023/09/12 04:10:09;;;;;;;23.35;19.30;;;18.80;99.90;;;;;;4862954;29;20049;-88
2023/09/12 04:12:35;;;;;;;22.48;19.38;;;18.90;99.90;;;;;;4873474;29;20040;-90
2023/09/12 04:15:00;;;;;;;25.67;19.98;;;18.80;99.90;;;;;;4848443;29;20052;-88
2023/09/12 04:17:26;;;;;;;24.25;20.08;;;18.80;99.90;;;;;;4849673;29;20053;-89
2023/09/12 04:19:52;;;;;;;23.27;19.73;;;18.70;99.90;;;;;;4879995;29;20044;-91
2023/09/12 04:22:18;;;;;;;23.35;19.38;;;18.70;99.90;;;;;;4829018;29;20061;-91
2023/09/12 04:24:43;;;;;;;23.17;18.33;;;18.70;99.90;;;;;;4863374;29;20552;-91
2023/09/12 04:27:09;;;;;;;24.17;19.40;;;18.60;99.90;;;;;;4848367;29;20488;-90
2023/09/12 04:29:35;;;;;;;24.88;20.00;;;18.60;99.90;;;;;;4833561;29;20088;-91
2023/09/12 04:32:03;;;;;;;22.38;18.60;;;18.60;99.90;;;;;;4849300;29;20068;-89
2023/09/12 04:34:29;;;;;;;21.38;18.27;;;18.60;99.90;;;;;;4855514;29;20124;-90
2023/09/12 04:36:55;;;;;;;22.27;17.75;;;18.50;99.90;;;;;;4837860;29;20172;-90
2023/09/12 04:39:20;;;;;;;25.85;19.42;;;18.50;99.90;;;;;;4859466;29;20053;-90
2023/09/12 04:41:46;;;;;;;23.30;17.75;;;18.50;99.90;;;;;;4843195;29;20044;-92
2023/09/12 04:44:12;;;;;;;24.13;19.08;;;18.50;99.90;;;;;;4851470;29;20515;-91
2023/09/12 04:46:38;;;;;;;21.15;18.08;;;18.50;99.90;;;;;;4849741;29;20516;-91
2023/09/12 04:49:04;;;;;;;24.65;19.10;;;18.40;99.90;;;;;;4856069;29;20043;-91
2023/09/12 04:51:30;;;;;;;23.23;19.38;;;;;;;;;;4848674;29;20064;-90
2023/09/12 04:53:56;;;;;;;19.67;17.70;;;18.30;99.90;;;;;;4843015;29;20431;-89
2023/09/12 04:56:24;;;;;;;22.40;18.67;;;18.30;99.90;;;;;;4846152;29;20140;-89
2023/09/12 04:58:50;;;;;;;24.23;19.67;;;18.30;99.90;;;;;;4844156;29;20096;-89
2023/09/12 05:01:16;;;;;;;25.02;19.85;;;18.30;99.90;;;;;;4877226;29;20163;-89
2023/09/12 05:03:45;;;;;;;26.25;20.50;;;18.20;99.90;;;;;;4846059;29;20483;-89
2023/09/12 05:06:13;;;;;;;27.10;22.20;;;18.30;99.90;;;;;;4844555;29;20447;-89
2023/09/12 05:08:39;;;;;;;26.23;20.60;;;18.20;99.90;;;;;;4859154;29;20043;-89
2023/09/12 05:11:04;;;;;;;25.88;20.70;;;18.10;99.90;;;;;;4845522;29;20037;-90
2023/09/12 05:13:30;;;;;;;25.98;20.17;;;18.20;99.90;;;;;;4825707;29;20036;-90
2023/09/12 05:15:56;;;;;;;22.23;18.38;;;18.20;99.90;;;;;;4837289;29;20041;-90
2023/09/12 05:18:22;;;;;;;24.60;19.63;;;18.20;99.90;;;;;;4830592;29;20585;-90
2023/09/12 05:20:49;;;;;;;23.50;18.92;;;18.10;99.90;;;;;;4845183;29;20052;-91
2023/09/12 05:23:15;;;;;;;28.05;21.48;;;18.10;99.90;;;;;;4860041;29;20146;-89
2023/09/12 05:25:40;;;;;;;24.33;20.33;;;18.10;99.90;;;;;;4859688;29;20052;-89
2023/09/12 05:28:07;;;;;;;26.55;20.40;;;18.10;99.90;;;;;;4843656;29;20048;-90
2023/09/12 05:30:32;;;;;;;29.83;21.67;;;18.10;99.90;;;;;;4838696;29;20045;-89
2023/09/12 05:32:58;;;;;;;27.35;20.35;;;18.10;99.90;;;;;;4830074;29;20045;-89
2023/09/12 05:35:24;;;;;;;26.75;21.00;;;18.10;99.90;;;;;;4862368;29;20559;-89
2023/09/12 05:37:50;;;;;;;25.05;20.45;;;18.10;99.90;;;;;;4854420;29;20124;-90
2023/09/12 05:40:17;;;;;;;22.47;18.53;;;18.10;99.90;;;;;;4861559;29;20069;-88
2023/09/12 05:42:43;;;;;;;21.15;17.17;;;18.10;99.90;;;;;;4851237;29;20052;-89
2023/09/12 05:45:09;;;;;;;26.23;20.25;;;18.10;99.90;;;;;;4849332;29;20610;-89
2023/09/12 05:47:35;;;;;;;24.90;19.50;;;18.10;99.90;;;;;;4843520;29;20040;-89
2023/09/12 05:50:00;;;;;;;25.77;20.08;;;18.10;99.90;;;;;;4822421;29;20143;-89
2023/09/12 05:52:26;;;;;;;22.67;18.88;;;18.10;99.90;;;;;;4843121;29;20080;-89
2023/09/12 05:54:52;;;;;;;23.83;18.98;;;18.10;99.90;;;;;;4835180;29;20057;-87
2023/09/12 05:57:18;;;;;;;24.33;20.25;;;18.20;99.90;;;;;;4858543;29;20053;-89
2023/09/12 05:59:43;;;;;;;29.45;18.42;;;18.10;99.90;;;;;;4842689;29;20221;-90
2023/09/12 06:02:09;;;;;;;21.52;19.25;;;18.20;99.90;;;;;;4835951;29;20049;-91
2023/09/12 06:04:36;;;;;;;26.92;19.75;;;18.20;99.90;;;;;;4856379;29;20508;-88
2023/09/12 06:07:05;;;;;;;29.40;21.83;;;18.30;99.90;;;;;;4855679;29;20076;-90
2023/09/12 06:09:30;;;;;;;32.05;23.02;;;18.30;99.90;;;;;;4845518;29;20557;-89
2023/09/12 06:11:56;;;;;;;29.08;22.35;;;18.30;99.90;;;;;;4843668;29;20494;-90
2023/09/12 06:14:22;;;;;;;30.15;22.98;;;18.30;99.90;;;;;;4861553;29;20049;-88
2023/09/12 06:16:48;;;;;;;35.17;23.73;;;18.30;99.90;;;;;;4865058;29;20048;-90
2023/09/12 06:19:14;;;;;;;30.00;22.00;;;18.40;99.90;;;;;;4840274;29;20045;-89
2023/09/12 06:21:42;;;;;;;30.60;21.92;;;18.40;99.90;;;;;;4859406;29;20560;-89
2023/09/12 06:24:11;;;;;;;32.60;22.30;;;18.40;99.90;;;;;;4857471;29;20062;-89
2023/09/12 06:26:38;;;;;;;30.90;21.63;;;18.40;99.90;;;;;;4859929;29;20536;-90
2023/09/12 06:29:04;;;;;;;31.20;21.52;;;18.40;99.90;;;;;;4868760;29;20120;-88
2023/09/12 06:31:30;;;;;;;33.22;23.77;;;17.90;99.90;;;;;;4858807;29;20212;-90
2023/09/12 06:33:56;;;;;;;29.10;20.50;;;18.50;99.90;;;;;;4847600;29;20305;-89
2023/09/12 06:36:26;;;;;;;37.63;22.80;;;18.50;99.90;;;;;;4857624;29;20501;-90
2023/09/12 06:38:52;;;;;;;37.53;22.63;;;18.50;99.90;;;;;;4847131;29;20181;-90
2023/09/12 06:41:19;;;;;;;30.23;22.23;;;18.50;99.90;;;;;;4831841;29;20080;-89
2023/09/12 06:43:45;;;;;;;33.35;22.65;;;18.50;99.90;;;;;;4860532;29;20040;-89
2023/09/12 06:46:10;;;;;;;39.22;23.48;;;18.50;99.90;;;;;;4877411;29;20097;-88
2023/09/12 06:48:36;;;;;;;71.13;26.90;;;18.50;99.90;;;;;;4830761;29;20051;-90
2023/09/12 06:51:05;;;;;;;44.80;25.63;;;18.50;99.90;;;;;;4842884;29;20055;-88
2023/09/12 06:53:31;;;;;;;40.65;25.50;;;18.50;99.90;;;;;;4857003;29;20126;-88
2023/09/12 06:55:58;;;;;;;37.08;24.27;;;18.50;99.90;;;;;;4844136;29;20091;-89
2023/09/12 06:58:26;;;;;;;37.17;23.55;;;18.50;99.90;;;;;;4845395;29;20497;-89
2023/09/12 07:00:51;;;;;;;39.58;24.52;;;18.60;99.90;;;;;;4875841;29;20056;-89
2023/09/12 07:03:17;;;;;;;54.83;27.98;;;18.60;99.90;;;;;;4876206;29;20744;-89
2023/09/12 07:05:43;;;;;;;37.42;23.73;;;18.60;99.90;;;;;;4862186;29;20512;-89
2023/09/12 07:08:09;;;;;;;38.15;25.20;;;18.60;99.90;;;;;;4845495;29;20511;-90
2023/09/12 07:10:35;;;;;;;35.58;23.13;;;18.70;99.90;;;;;;4861139;29;20067;-91
2023/09/12 07:13:02;;;;;;;38.60;25.02;;;18.70;99.90;;;;;;4845185;29;20047;-92
2023/09/12 07:15:28;;;;;;;45.85;26.42;;;18.80;99.90;;;;;;4865633;29;20421;-89
2023/09/12 07:17:56;;;;;;;34.72;24.30;;;18.70;99.90;;;;;;4863444;29;20063;-91
2023/09/12 07:20:22;;;;;;;38.60;24.38;;;18.80;99.90;;;;;;4830407;29;20582;-91
2023/09/12 07:22:47;;;;;;;33.40;23.00;;;18.80;99.90;;;;;;4831387;29;20064;-90
2023/09/12 07:25:14;;;;;;;34.40;23.02;;;18.90;99.90;;;;;;4841563;29;20045;-91
2023/09/12 07:27:40;;;;;;;35.42;23.75;;;18.90;99.90;;;;;;4861761;29;20601;-91
2023/09/12 07:30:07;;;;;;;35.58;24.80;;;19.00;99.90;;;;;;4857346;29;20105;-90
2023/09/12 07:32:33;;;;;;;42.25;24.90;;;19.10;99.90;;;;;;4849868;29;20040;-92
2023/09/12 07:34:59;;;;;;;38.53;24.48;;;19.20;99.90;;;;;;4865478;29;20062;-91
2023/09/12 07:37:24;;;;;;;35.00;24.10;;;19.30;99.90;;;;;;4848756;29;20105;-92
2023/09/12 07:39:50;;;;;;;43.53;26.52;;;19.40;99.90;;;;;;4866238;29;20044;-90
2023/09/12 07:42:19;;;;;;;37.08;24.77;;;19.40;99.90;;;;;;4849263;29;20059;-89
2023/09/12 07:44:47;;;;;;;31.55;20.83;;;19.60;99.90;;;;;;4850036;29;20048;-92
2023/09/12 07:47:14;;;;;;;38.47;24.02;;;19.80;99.90;;;;;;4845038;29;20127;-90
2023/09/12 07:49:40;;;;;;;35.38;24.77;;;19.80;99.90;;;;;;4856569;29;20049;-90
2023/09/12 07:52:06;;;;;;;36.10;24.08;;;19.90;99.90;;;;;;4846412;29;20643;-89
2023/09/12 07:54:31;;;;;;;32.03;23.23;;;20.00;99.90;;;;;;4864260;29;20096;-91
2023/09/12 07:56:57;;;;;;;33.47;22.58;;;20.10;99.90;;;;;;4878269;29;20049;-92
2023/09/12 07:59:23;;;;;;;31.15;22.85;;;20.30;99.90;;;;;;4832426;29;20060;-90
2023/09/12 08:01:49;;;;;;;30.42;22.20;;;20.40;99.90;;;;;;4832965;29;20067;-91
2023/09/12 08:04:14;;;;;;;29.27;21.83;;;20.40;99.90;;;;;;4831622;29;20080;-91
2023/09/12 08:06:41;;;;;;;29.98;22.73;;;20.40;99.90;;;;;;4828309;29;20037;-89
2023/09/12 08:09:08;;;;;;;30.65;21.95;;;20.40;99.90;;;;;;4847747;29;20088;-91
2023/09/12 08:11:33;;;;;;;;;;;20.30;99.90;;;;;;4847903;29;20044;-89
2023/09/12 08:13:59;;;;;;;23.25;20.20;;;20.20;99.90;;;;;;4848778;29;19924;-89
2023/09/12 08:16:25;;;;;;;30.60;22.48;;;20.20;99.90;;;;;;4861568;29;20100;-92
2023/09/12 08:18:50;;;;;;;30.35;23.60;;;20.10;99.90;;;;;;4839221;29;20045;-92
2023/09/12 08:21:16;;;;;;;26.27;20.85;;;20.10;99.90;;;;;;4832553;29;20044;-92
2023/09/12 08:23:42;;;;;;;30.20;22.70;;;20.10;99.90;;;;;;4831509;29;20048;-92
2023/09/12 08:26:09;;;;;;;31.42;24.50;;;20.10;99.90;;;;;;4849518;29;20434;-93
2023/09/12 08:28:34;;;;;;;28.27;22.60;;;20.20;99.90;;;;;;4833322;29;20139;-93
2023/09/12 08:31:00;;;;;;;27.45;22.33;;;20.40;99.90;;;;;;4880047;29;20128;-91
2023/09/12 08:33:26;;;;;;;31.85;23.02;;;;;;;;;;4856157;29;20076;-92
2023/09/12 08:35:52;;;;;;;28.33;22.15;;;20.80;99.90;;;;;;4862688;29;20040;-92
2023/09/12 08:38:18;;;;;;;25.73;20.33;;;20.80;99.90;;;;;;4828978;29;20460;-92
2023/09/12 08:40:50;;;;;;;24.38;21.35;;;20.80;99.90;;;;;;4861814;29;20351;-93
2023/09/12 08:43:17;;;;;;;26.85;20.42;;;20.80;99.90;;;;;;4833640;29;20405;-92
2023/09/12 08:45:46;;;;;;;26.33;21.33;;;20.80;99.90;;;;;;4864216;29;20079;-94
2023/09/12 08:48:12;;;;;;;25.67;19.85;;;20.80;99.90;;;;;;4851467;29;20044;-93
2023/09/12 08:50:38;;;;;;;26.00;20.73;;;20.80;99.90;;;;;;4863562;29;20496;-93
2023/09/12 08:53:05;;;;;;;26.40;20.77;;;20.80;99.90;;;;;;4832275;29;20128;-94
2023/09/12 08:55:35;;;;;;;28.80;21.73;;;20.80;99.90;;;;;;4848387;29;20047;-88
2023/09/12 08:58:03;;;;;;;23.02;18.30;;;20.90;99.90;;;;;;4845939;29;20049;-93
2023/09/12 09:00:29;;;;;;;22.67;18.50;;;20.90;99.90;;;;;;4884340;29;20560;-93
2023/09/12 09:02:56;;;;;;;23.23;18.97;;;21.00;99.90;;;;;;4863692;29;20131;-89
2023/09/12 09:05:23;;;;;;;;;;;20.90;99.90;;;;;;4861695;29;20055;-92
2023/09/12 09:07:50;;;;;;;24.65;19.38;;;20.80;99.90;;;;;;4860928;29;19993;-90
2023/09/12 09:10:17;;;;;;;26.23;20.90;;;20.80;99.90;;;;;;4874935;29;20461;-89
2023/09/12 09:12:45;;;;;;;25.38;19.10;;;20.80;99.90;;;;;;4859861;29;20130;-90
2023/09/12 09:15:28;;;;;;;24.77;19.55;;;20.80;99.90;;;;;;4891021;29;20056;-92
2023/09/12 09:17:56;;;;;;;24.83;19.00;;;20.80;99.90;;;;;;4855901;29;20041;-91
2023/09/12 09:20:34;;;;;;;22.52;18.60;;;20.90;99.90;;;;;;4858057;29;20040;-94
2023/09/12 09:23:08;;;;;;;23.70;17.88;;;20.90;99.90;;;;;;4863083;29;20091;-93
2023/09/12 09:25:39;;;;;;;24.67;18.80;;;21.10;99.90;;;;;;4846230;29;20048;-92
2023/09/12 09:28:15;;;;;;;25.67;18.38;;;21.10;99.90;;;;;;4847662;29;20040;-93
2023/09/12 09:30:41;;;;;;;19.95;17.85;;;;;;;;;;4873500;29;20040;-95
2023/09/12 09:33:07;;;;;;;19.13;16.20;;;21.30;99.90;;;;;;4858087;29;20089;-93
2023/09/12 09:35:33;;;;;;;20.50;15.68;;;21.90;99.90;;;;;;4855578;29;20206;-88
2023/09/12 09:37:59;;;;;;;22.23;17.95;;;21.50;99.90;;;;;;4839407;29;20052;-89
2023/09/12 09:40:24;;;;;;;22.42;17.73;;;21.30;99.90;;;;;;4829546;29;20131;-92
2023/09/12 09:42:56;;;;;;;23.80;18.77;;;21.30;99.90;;;;;;4847385;29;20131;-90
2023/09/12 09:45:21;;;;;;;21.70;17.85;;;22.00;99.90;;;;;;4852850;29;20048;-91
2023/09/12 09:47:50;;;;;;;22.90;19.40;;;21.70;99.90;;;;;;4842982;29;20055;-88
2023/09/12 09:50:16;;;;;;;22.30;18.63;;;21.40;99.90;;;;;;4842818;29;20045;-90
2023/09/12 09:52:43;;;;;;;20.48;18.00;;;21.50;99.90;;;;;;4842365;29;20056;-92
2023/09/12 09:55:19;;;;;;;23.23;19.70;;;22.10;99.90;;;;;;4844311;29;20140;-94
2023/09/12 09:57:45;;;;;;;22.45;18.77;;;21.90;99.90;;;;;;4852346;29;20051;-88
2023/09/12 10:00:14;;;;;;;21.77;18.63;;;21.90;99.90;;;;;;4869250;29;20041;-89
2023/09/12 10:02:42;;;;;;;22.55;20.13;;;21.70;99.90;;;;;;4845998;29;20398;-92
2023/09/12 10:05:09;;;;;;;22.23;17.95;;;21.90;99.90;;;;;;4860047;29;20049;-90
2023/09/12 10:07:38;;;;;;;21.35;17.13;;;;;;;;;;4856752;29;20049;-93
2023/09/12 10:10:04;;;;;;;22.25;19.45;;;22.10;99.90;;;;;;4862202;29;20040;-89
2023/09/12 10:12:33;;;;;;;17.77;15.13;;;22.10;99.90;;;;;;4858305;29;20136;-92
2023/09/12 10:15:01;;;;;;;20.23;15.57;;;22.20;99.90;;;;;;4844140;29;20049;-91
2023/09/12 10:17:36;;;;;;;18.55;14.60;;;22.20;99.90;;;;;;4852655;29;20044;-92
2023/09/12 10:20:09;;;;;;;17.80;14.50;;;22.30;99.90;;;;;;4874093;29;20045;-91
2023/09/12 10:22:59;;;;;;;17.25;15.25;;;22.30;99.90;;;;;;4846180;29;20059;-93
2023/09/12 10:25:27;;;;;;;19.48;15.93;;;22.30;99.90;;;;;;4861334;29;20044;-91
2023/09/12 10:27:54;;;;;;;18.50;14.77;;;22.30;99.90;;;;;;4848386;29;20628;-93
2023/09/12 10:30:24;;;;;;;17.58;14.80;;;22.30;99.90;;;;;;4862921;29;20048;-90
2023/09/12 10:32:52;;;;;;;19.42;16.30;;;22.20;99.90;;;;;;4856181;29;20040;-92
2023/09/12 10:35:18;;;;;;;19.90;16.95;;;22.30;99.90;;;;;;4843886;29;20052;-94
2023/09/12 10:37:48;;;;;;;20.48;16.30;;;22.40;99.90;;;;;;4855993;29;20117;-92
2023/09/12 10:40:15;;;;;;;17.05;15.20;;;22.50;99.90;;;;;;4858227;29;20461;-90
2023/09/12 10:42:42;;;;;;;19.10;15.90;;;22.60;99.90;;;;;;4831221;29;20045;-93
2023/09/12 10:45:09;;;;;;;17.67;14.73;;;22.70;99.90;;;;;;4844412;29;20756;-92
2023/09/12 10:47:37;;;;;;;18.60;14.85;;;22.60;99.90;;;;;;4844572;29;20090;-91
2023/09/12 10:50:03;;;;;;;19.10;14.77;;;22.70;99.90;;;;;;4859222;29;20278;-88
2023/09/12 10:52:29;;;;;;;16.13;13.35;;;22.70;99.90;;;;;;4847601;29;20048;-90
2023/09/12 10:54:56;;;;;;;18.73;14.23;;;22.60;99.90;;;;;;4850317;29;20060;-89
2023/09/12 10:57:22;;;;;;;15.93;13.98;;;22.80;99.90;;;;;;4859469;29;20064;-90
2023/09/12 11:00:00;;;;;;;15.27;13.60;;;22.80;99.90;;;;;;4859577;29;20683;-89
2023/09/12 11:02:30;;;;;;;16.38;14.60;;;22.90;99.90;;;;;;4856927;29;20849;-89
2023/09/12 11:04:57;;;;;;;19.13;14.15;;;23.00;99.90;;;;;;4871778;29;20051;-89
2023/09/12 11:07:32;;;;;;;18.17;15.95;;;23.10;99.90;;;;;;4859598;29;20081;-92
2023/09/12 11:10:20;;;;;;;18.30;15.38;;;23.20;99.90;;;;;;4859306;29;20596;-91
2023/09/12 11:12:48;;;;;;;17.33;15.38;;;23.20;99.90;;;;;;4875835;29;20055;-89
2023/09/12 11:15:17;;;;;;;15.50;13.80;;;23.30;99.90;;;;;;4871555;29;20045;-91
2023/09/12 11:18:04;;;;;;;16.60;14.43;;;23.40;99.90;;;;;;4845117;29;20044;-91
2023/09/12 11:20:58;;;;;;;17.67;15.30;;;23.50;99.90;;;;;;4854999;29;20076;-91
2023/09/12 11:23:25;;;;;;;17.35;14.77;;;23.60;99.90;;;;;;4858814;29;20052;-92
2023/09/12 11:26:07;;;;;;;16.95;13.98;;;23.60;99.90;;;;;;4855153;29;20045;-92
2023/09/12 11:28:33;;;;;;;17.15;14.30;;;23.70;99.90;;;;;;4863016;29;20052;-94
2023/09/12 11:30:59;;;;;;;17.48;14.98;;;23.70;99.90;;;;;;4858858;29;20485;-90
2023/09/12 11:33:26;;;;;;;19.27;16.50;;;23.70;99.90;;;;;;4845161;29;20049;-89
2023/09/12 11:35:57;;;;;;;17.55;14.70;;;23.60;99.90;;;;;;4854645;29;20090;-95
2023/09/12 11:38:31;;;;;;;17.33;15.25;;;23.50;99.90;;;;;;4847758;29;20135;-94
2023/09/12 11:40:57;;;;;;;16.52;14.65;;;23.50;99.90;;;;;;4856851;29;20400;-90
2023/09/12 11:43:24;;;;;;;;;;;23.60;99.90;;;;;;4861420;29;20075;-89
2023/09/12 11:45:54;;;;;;;17.98;15.77;;;23.70;99.90;;;;;;4857046;29;19930;-90
2023/09/12 11:48:20;;;;;;;18.25;14.98;;;23.70;99.90;;;;;;4858783;29;20044;-91
2023/09/12 11:50:54;;;;;;;19.27;15.60;;;23.80;99.90;;;;;;4860231;29;20059;-88
2023/09/12 11:53:26;;;;;;;16.50;14.80;;;23.90;99.90;;;;;;4844751;29;20052;-92
2023/09/12 11:55:59;;;;;;;17.67;15.30;;;24.00;99.90;;;;;;4876449;29;20054;-94
2023/09/12 11:58:27;;;;;;;17.65;15.77;;;24.00;99.90;;;;;;4875421;29;20058;-93
2023/09/12 12:00:55;;;;;;;16.95;14.23;;;24.10;99.90;;;;;;4845273;29;20052;-90
2023/09/12 12:03:26;;;;;;;15.73;12.95;;;24.30;99.90;;;;;;4857730;29;20041;-91
2023/09/12 12:05:53;;;;;;;14.55;12.95;;;24.40;99.90;;;;;;4829720;29;20143;-93
2023/09/12 12:08:19;;;;;;;14.00;12.07;;;24.50;99.90;;;;;;4860727;29;20396;-92
2023/09/12 12:10:50;;;;;;;17.47;12.07;;;24.50;99.90;;;;;;4865789;29;20052;-93
2023/09/12 12:13:20;;;;;;;14.75;12.05;;;24.40;99.90;;;;;;4844148;29;20055;-92
2023/09/12 12:15:46;;;;;;;14.85;12.40;;;24.30;99.90;;;;;;4848321;29;20064;-92
2023/09/12 12:18:12;;;;;;;15.27;12.90;;;24.20;99.90;;;;;;4861957;29;20800;-91
2023/09/12 12:20:38;;;;;;;14.70;12.63;;;24.10;99.90;;;;;;4854956;29;20059;-92
2023/09/12 12:23:04;;;;;;;14.80;12.90;;;24.00;99.90;;;;;;4846433;29;20053;-95
2023/09/12 12:25:34;;;;;;;14.80;12.07;;;24.00;99.90;;;;;;4846878;29;20033;-91
2023/09/12 12:28:00;;;;;;;15.15;12.25;;;23.90;99.90;;;;;;4879893;29;20093;-90
2023/09/12 12:30:34;;;;;;;12.52;11.18;;;23.90;99.90;;;;;;4880962;29;20481;-91
2023/09/12 12:33:02;;;;;;;14.20;11.10;;;23.90;99.90;;;;;;4876170;29;20414;-90